Aérodrome :
LOGIN :

S'inscrire | Disclaimer

   EN    FR    IT 

 










Légende :    VFR   VFR Marginal   IFR   IFR Intensif   IFR Très Intensif
Visi : 
Plafond : 
>= 8 km
>= 3000ft
5 à 8 km
1000 à 3000 ft
1500m à 5 km
500 à 1000 ft
800 à 1500m
200 à 500 ft
< 800m
< 200 ft
Symboles :   Orages  Brouillard  Fortes neiges  Fortes précipitations  Vent > 20 kt
SIGMETs :   Divers  Orages  Givrage  Turbulence  Onde Orograph.  Cendres Volcan.







- Altitude de l'aérodrome : 383 ft
- Code IATA : UDJ


UKLU - Uzhhorod

DERNIER METAR :
  • 231330Z 10003MPS 040V130 9999 SCT017CB BKN017 16/13 Q1011 R10/090070 NOSIG

METARs EXPIRÉS :
  • 231300Z 14002MPS 070V230 9999 SCT021CB BKN021 16/13 Q1011 R10/090070 NOSIG
  • 231230Z VRB02MPS 9999 SCT030CB BKN030 17/13 Q1011 R10/090070 NOSIG
  • 231200Z 12003MPS 080V220 9999 SCT030CB BKN030 17/13 Q1011 R10/090070 NOSIG
  • 231130Z 12003MPS 070V220 9999 SCT025CB BKN025 17/13 Q1011 R10/090070 NOSIG
  • 231100Z 13003MPS 040V220 9999 -SHRA SCT025CB BKN025 17/13 Q1011 R10/190065 NOSIG

TAF TAF UKLU
Valide du 23 à 12h jusqu'au 23 à 21h UTC


231108Z 2312/2321 14003MPS 9999 OVC020
TEMPO 2312/2318 32005MPS 2000 -SHRA SCT005 SCT015CB
Pas de NOTAMs connus pour ce terrain.
1 SIGMET publié pour la FIR L'VIV (UKLV) :
 
Orages noyés dans la masse avec grêle
UKLV SIGMET 1 VALID 231300/231500 UKLW
UKLV LVIV FIR/UIR EMBD TSGR FCST ENTIRE FIR/UIR TOP FL400 STNR NC=



MET'MAP, la Météo Aéronautique d'un coup d'oeil ! - Copyright ORBIFLY Décembre 2007 - Disclaimer

ORBIFLY MET'MAP TEAM :

Programmation & Développement : Alexandra Zaïnal
Conception & Développement : Baudouin d'Aumeries
Co-Programmation & Développement : Marc-Olivier Méhu
Soutien technique & logistique : Manuel Goepfert

Contact : metmap@orbifly.com




SOURCES & CREDITS :

   NOAA